Time;durP1;ratioP1;P1;durP2;ratioP2;P2;SDS_P1;SDS_P2;PMS_P1;PMS_P2;Temp;Humidity;BMP_temperature;BMP_pressure;BME280_temperature;BME280_humidity;BME280_pressure;Samples;Min_cycle;Max_cycle;Signal;HPM_P1;HPM_P2
2023/07/23 00:00:10;;;;;;;7.20;4.57;;;;;;;21.49;48.29;99605.75;6120218;23;20079;-85
2023/07/23 00:02:40;;;;;;;8.75;4.35;;;;;;;21.46;48.28;99603.47;6096026;23;20029;-84
2023/07/23 00:05:07;;;;;;;8.20;3.75;;;;;;;21.45;48.44;99605.34;6096613;23;20021;-83
2023/07/23 00:07:34;;;;;;;7.05;3.63;;;;;;;21.41;48.65;99606.00;6072524;23;20662;-83
2023/07/23 00:10:01;;;;;;;5.15;3.88;;;;;;;21.35;48.70;99606.81;6096424;23;20024;-84
2023/07/23 00:12:28;;;;;;;6.75;3.90;;;;;;;21.32;48.88;99599.09;6120346;23;20047;-83
2023/07/23 00:14:54;;;;;;;6.80;4.47;;;;;;;21.32;48.81;99604.50;6070723;23;20121;-83
2023/07/23 00:17:21;;;;;;;5.55;3.95;;;;;;;21.29;48.78;99605.75;6082140;23;20016;-83
2023/07/23 00:19:48;;;;;;;6.63;3.95;;;;;;;21.31;48.80;99605.56;6096206;23;20036;-82
2023/07/23 00:22:15;;;;;;;8.40;4.53;;;;;;;21.31;48.50;99602.88;6120018;23;20037;-83
2023/07/23 00:24:42;;;;;;;6.30;4.07;;;;;;;21.28;48.72;99606.00;6095198;23;20029;-82
2023/07/23 00:27:10;;;;;;;8.13;4.47;;;;;;;21.22;48.76;99604.97;6072894;23;20033;-83
2023/07/23 00:29:37;;;;;;;7.70;4.55;;;;;;;21.25;48.84;99599.16;6047069;23;20337;-83
2023/07/23 00:32:04;;;;;;;7.25;4.03;;;;;;;21.24;49.00;99601.03;6096582;23;20751;-83
2023/07/23 00:34:31;;;;;;;7.32;4.05;;;;;;;21.22;49.27;99596.88;6071685;23;20029;-83
2023/07/23 00:36:58;;;;;;;6.35;4.30;;;;;;;21.21;49.13;99597.91;6072192;23;20018;-83
2023/07/23 00:39:24;;;;;;;6.22;4.45;;;;;;;21.18;49.43;99601.84;6071903;23;20028;-83
2023/07/23 00:41:51;;;;;;;7.22;3.80;;;;;;;21.17;49.48;99596.69;6096149;23;20129;-83
2023/07/23 00:44:18;;;;;;;6.20;3.63;;;;;;;21.17;49.52;99593.97;6071795;23;20060;-83
2023/07/23 00:46:45;;;;;;;8.88;4.13;;;;;;;21.15;49.33;99587.94;6071627;23;20104;-83
2023/07/23 00:49:12;;;;;;;10.02;4.00;;;;;;;21.11;49.60;99581.28;6071910;23;20383;-82
2023/07/23 00:51:39;;;;;;;8.40;4.22;;;;;;;21.08;49.55;99577.16;6071973;23;21414;-83
2023/07/23 00:54:07;;;;;;;6.05;4.10;;;;;;;21.02;49.72;99584.22;6071833;23;20504;-83
2023/07/23 00:56:35;;;;;;;14.75;4.30;;;;;;;21.00;49.79;99583.59;6095258;23;20777;-83
2023/07/23 00:59:02;;;;;;;9.07;4.53;;;;;;;20.97;49.82;99588.59;6095600;23;20029;-84
2023/07/23 01:01:30;;;;;;;8.10;3.60;;;;;;;20.91;50.88;99579.44;6048114;23;20040;-83
2023/07/23 01:03:57;;;;;;;8.73;4.55;;;;;;;20.90;51.03;99590.47;6071192;23;20025;-83
2023/07/23 01:06:26;;;;;;;8.75;4.03;;;;;;;20.90;51.08;99585.91;6096214;23;20022;-83
2023/07/23 01:08:55;;;;;;;5.78;4.20;;;;;;;20.86;51.50;99579.25;6072118;23;20131;-82
2023/07/23 01:11:26;;;;;;;8.68;4.38;;;;;;;20.80;51.24;99580.09;6072175;23;20354;-82
2023/07/23 01:13:55;;;;;;;7.03;4.07;;;;;;;20.79;50.72;99575.75;6094450;23;20022;-86
2023/07/23 01:16:23;;;;;;;6.93;4.75;;;;;;;20.78;50.91;99571.38;6072483;23;20025;-83
2023/07/23 01:18:50;;;;;;;8.25;4.05;;;;;;;20.75;50.89;99577.19;6095841;23;20025;-83
2023/07/23 01:21:17;;;;;;;5.30;3.88;;;;;;;20.73;50.83;99573.88;6096188;23;20493;-83
2023/07/23 01:23:44;;;;;;;5.60;3.70;;;;;;;20.70;50.75;99582.38;6095277;23;20021;-82
2023/07/23 01:26:11;;;;;;;7.78;4.15;;;;;;;20.69;50.74;99584.25;6095218;23;20021;-83
2023/07/23 01:28:38;;;;;;;8.27;3.63;;;;;;;20.66;50.82;99573.03;6072151;23;20025;-83
2023/07/23 01:31:04;;;;;;;6.50;4.20;;;;;;;20.66;50.49;99570.34;6047622;23;20045;-82
2023/07/23 01:33:31;;;;;;;7.38;3.60;;;;;;;20.62;50.74;99569.09;6094878;23;20049;-82
2023/07/23 01:35:59;;;;;;;9.82;4.10;;;;;;;20.62;50.92;99561.84;6072266;23;20029;-84
2023/07/23 01:38:26;;;;;;;5.47;3.92;;;;;;;20.60;51.10;99566.59;6072540;23;20077;-82
2023/07/23 01:40:53;;;;;;;6.55;3.67;;;;;;;20.56;50.55;99568.06;6094752;23;20052;-83
2023/07/23 01:43:20;;;;;;;6.15;3.67;;;;;;;20.51;51.26;99559.75;6094541;23;20045;-83
2023/07/23 01:45:47;;;;;;;6.03;4.10;;;;;;;20.50;51.36;99563.44;6072030;23;20029;-83
2023/07/23 01:48:15;;;;;;;5.68;3.58;;;;;;;20.49;51.34;99565.31;6095715;23;20017;-83
2023/07/23 01:50:42;;;;;;;5.85;3.90;;;;;;;20.49;51.08;99576.13;6094736;23;20022;-83
2023/07/23 01:53:09;;;;;;;6.55;4.38;;;;;;;20.46;51.24;99559.53;6094980;23;20032;-82
2023/07/23 01:55:36;;;;;;;6.07;4.05;;;;;;;20.43;51.29;99560.78;6071319;23;20036;-82
2023/07/23 01:58:03;;;;;;;9.40;4.00;;;;;;;20.43;51.32;99558.06;6071791;23;20060;-83
2023/07/23 02:00:30;;;;;;;5.55;3.65;;;;;;;20.45;51.38;99561.38;6071607;23;20468;-83
2023/07/23 02:02:56;;;;;;;6.65;4.38;;;;;;;20.39;51.38;99562.22;6094211;23;20020;-82
2023/07/23 02:05:23;;;;;;;6.53;4.10;;;;;;;20.38;51.36;99560.56;6046683;23;20100;-83
2023/07/23 02:07:50;;;;;;;7.00;3.92;;;;;;;20.37;51.46;99557.00;6070752;23;20399;-83
2023/07/23 02:10:19;;;;;;;6.07;3.88;;;;;;;20.36;51.50;99562.63;6119647;23;20044;-82
2023/07/23 02:12:46;;;;;;;6.35;4.10;;;;;;;20.36;51.60;99551.84;6118910;23;20025;-83
2023/07/23 02:15:13;;;;;;;6.07;3.95;;;;;;;20.33;52.55;99557.66;6069274;23;20021;-82
2023/07/23 02:17:40;;;;;;;7.20;4.20;;;;;;;20.31;53.19;99562.41;6093699;23;20025;-83
2023/07/23 02:20:09;;;;;;;5.57;3.83;;;;;;;20.26;53.62;99562.19;6072054;23;20045;-82
2023/07/23 02:22:36;;;;;;;6.03;4.47;;;;;;;20.22;53.30;99556.38;6071255;23;20017;-83
2023/07/23 02:25:04;;;;;;;7.60;4.40;;;;;;;20.18;53.68;99563.22;6094055;23;20559;-82
2023/07/23 02:27:33;;;;;;;8.20;4.57;;;;;;;20.19;53.14;99548.69;6094986;23;20025;-82
2023/07/23 02:29:59;;;;;;;7.88;4.68;;;;;;;20.14;52.59;99553.88;6094440;23;20021;-84
2023/07/23 02:32:26;;;;;;;8.48;4.20;;;;;;;20.14;52.38;99560.09;6071369;23;20545;-82
2023/07/23 02:34:53;;;;;;;4.95;3.60;;;;;;;20.13;52.40;99554.94;6069155;23;20025;-82
2023/07/23 02:37:20;;;;;;;6.70;4.28;;;;;;;20.11;52.26;99554.28;6071876;23;20045;-82
2023/07/23 02:39:46;;;;;;;7.05;4.75;;;;;;;20.12;52.16;99564.88;6118224;23;20021;-83
2023/07/23 02:42:13;;;;;;;6.30;4.22;;;;;;;20.09;52.32;99564.44;6094744;23;20095;-82
2023/07/23 02:44:40;;;;;;;7.05;3.83;;;;;;;20.05;52.40;99564.03;6047402;23;20088;-82
2023/07/23 02:47:07;;;;;;;8.05;4.50;;;;;;;20.00;52.42;99561.13;6119802;23;20036;-82
2023/07/23 02:49:33;;;;;;;6.25;4.07;;;;;;;20.00;52.56;99562.97;6070265;23;20393;-84
2023/07/23 02:52:01;;;;;;;9.20;4.57;;;;;;;19.95;52.53;99567.13;6071188;23;20718;-82
2023/07/23 02:54:28;;;;;;;7.55;4.20;;;;;;;19.95;52.53;99572.50;6117954;23;20048;-82
2023/07/23 02:56:55;;;;;;;6.20;4.13;;;;;;;19.90;52.56;99561.50;6118994;23;20096;-83
2023/07/23 02:59:21;;;;;;;6.30;4.22;;;;;;;19.93;52.51;99571.88;6119729;23;20449;-82
2023/07/23 03:01:48;;;;;;;5.95;4.00;;;;;;;19.91;52.71;99573.94;6047123;23;20648;-83
2023/07/23 03:04:15;;;;;;;6.80;4.10;;;;;;;19.85;53.07;99566.66;6069526;23;20124;-82
2023/07/23 03:06:42;;;;;;;6.07;4.07;;;;;;;19.81;53.14;99573.47;6095177;23;20454;-82
2023/07/23 03:09:09;;;;;;;6.03;4.30;;;;;;;19.79;52.94;99563.94;6094964;23;20694;-83
2023/07/23 03:11:35;;;;;;;9.73;4.25;;;;;;;19.80;53.19;99577.22;6070517;23;20053;-82
2023/07/23 03:14:02;;;;;;;10.90;4.65;;;;;;;19.76;53.07;99575.13;6093722;23;20327;-83
2023/07/23 03:16:29;;;;;;;5.75;3.83;;;;;;;19.75;53.07;99573.47;6118883;23;20014;-83
2023/07/23 03:18:56;;;;;;;6.45;3.83;;;;;;;19.71;53.27;99579.25;6119578;23;20017;-82
2023/07/23 03:21:22;;;;;;;6.57;4.57;;;;;;;19.72;53.05;99572.84;6118698;23;20162;-82
2023/07/23 03:23:49;;;;;;;6.30;4.22;;;;;;;19.75;53.23;99573.47;6092860;23;20034;-83
2023/07/23 03:26:16;;;;;;;7.47;4.35;;;;;;;19.75;53.14;99568.91;6095019;23;20108;-82
2023/07/23 03:28:43;;;;;;;6.75;4.35;;;;;;;19.74;53.33;99572.63;6093518;23;20400;-82
2023/07/23 03:31:11;;;;;;;5.93;4.20;;;;;;;19.73;53.08;99569.09;6095688;23;20047;-82
2023/07/23 03:33:37;;;;;;;11.90;5.03;;;;;;;19.72;53.23;99572.84;6071016;23;20025;-82
2023/07/23 03:36:04;;;;;;;6.68;3.97;;;;;;;19.71;53.25;99573.03;6088868;23;20021;-82
2023/07/23 03:38:31;;;;;;;6.78;3.85;;;;;;;19.66;53.36;99564.69;6070196;23;20030;-84
2023/07/23 03:40:58;;;;;;;6.80;4.45;;;;;;;19.70;53.40;99569.53;6118760;23;20437;-82
2023/07/23 03:43:25;;;;;;;6.88;4.60;;;;;;;19.66;53.31;99562.81;6068973;23;20021;-83
2023/07/23 03:45:52;;;;;;;7.15;4.85;;;;;;;19.67;53.20;99571.78;6095583;23;20021;-82
2023/07/23 03:48:18;;;;;;;7.90;4.47;;;;;;;19.65;53.69;99563.88;6070624;23;20030;-82
2023/07/23 03:50:45;;;;;;;5.03;3.80;;;;;;;19.67;53.60;99577.19;6094620;23;20473;-82
2023/07/23 03:53:12;;;;;;;6.88;4.55;;;;;;;19.66;53.73;99568.22;6093906;23;20032;-82
2023/07/23 03:55:39;;;;;;;9.30;4.50;;;;;;;19.66;54.11;99564.69;6046017;23;20017;-82
2023/07/23 03:58:05;;;;;;;6.78;4.05;;;;;;;19.67;54.72;99574.50;6070587;23;20465;-83
2023/07/23 04:00:32;;;;;;;7.50;4.50;;;;;;;19.64;55.37;99574.84;6093899;23;20370;-82
2023/07/23 04:03:02;;;;;;;5.90;3.95;;;;;;;19.64;55.02;99569.44;6069780;23;20021;-82
2023/07/23 04:05:29;;;;;;;6.75;4.47;;;;;;;19.69;54.76;99575.09;6093885;23;20737;-82
2023/07/23 04:07:55;;;;;;;6.45;4.00;;;;;;;19.68;54.56;99576.97;6094480;23;20037;-82
2023/07/23 04:10:22;;;;;;;7.93;4.82;;;;;;;19.70;54.30;99572.22;6118601;23;20453;-82
2023/07/23 04:12:49;;;;;;;9.95;4.97;;;;;;;19.90;54.66;99564.19;6095404;23;20053;-83
2023/07/23 04:15:16;;;;;;;6.95;4.60;;;;;;;20.65;55.00;99564.09;6096838;23;20041;-82
2023/07/23 04:17:42;;;;;;;9.45;4.47;;;;;;;21.58;53.31;99563.97;6070734;23;20673;-82
2023/07/23 04:20:10;;;;;;;6.68;4.32;;;;;;;22.56;51.12;99564.66;6120124;23;20057;-82
2023/07/23 04:22:36;;;;;;;11.45;4.75;;;;;;;23.26;48.20;99569.84;6072304;23;20025;-83
2023/07/23 04:25:03;;;;;;;8.27;5.78;;;;;;;23.89;46.02;99571.41;6095028;23;20025;-82
2023/07/23 04:27:32;;;;;;;7.65;4.63;;;;;;;24.22;43.96;99579.91;6072698;23;20025;-82
2023/07/23 04:29:59;;;;;;;8.02;4.60;;;;;;;23.96;43.79;99574.84;6072314;23;20022;-82
2023/07/23 04:32:25;;;;;;;7.72;4.57;;;;;;;23.40;44.06;99571.34;6071944;23;20021;-82
2023/07/23 04:34:52;;;;;;;7.75;4.43;;;;;;;22.89;45.12;99576.00;6071505;23;20027;-83
2023/07/23 04:37:20;;;;;;;11.27;4.75;;;;;;;22.38;45.95;99573.53;6071795;23;20590;-82
2023/07/23 04:39:47;;;;;;;9.30;5.38;;;;;;;21.95;46.90;99577.69;6071635;23;20104;-82
2023/07/23 04:42:13;;;;;;;7.68;4.15;;;;;;;21.64;47.39;99575.78;6120032;23;20025;-82
2023/07/23 04:44:40;;;;;;;6.85;4.63;;;;;;;21.38;48.15;99584.78;6120039;23;20024;-82
2023/07/23 04:47:07;;;;;;;9.18;4.78;;;;;;;21.15;48.73;99577.97;6119203;23;20036;-83
2023/07/23 04:49:33;;;;;;;8.20;4.35;;;;;;;20.97;49.15;99589.44;6095927;23;20021;-82
2023/07/23 04:52:00;;;;;;;7.20;4.78;;;;;;;20.84;49.46;99581.34;6095362;23;20018;-82
2023/07/23 04:54:27;;;;;;;7.30;4.57;;;;;;;20.72;49.62;99583.00;6119221;23;20029;-83
2023/07/23 04:56:54;;;;;;;8.63;4.60;;;;;;;20.65;49.85;99579.47;6071681;23;20021;-82
2023/07/23 04:59:20;;;;;;;11.52;4.65;;;;;;;20.60;50.05;99585.50;6095840;23;20091;-83
2023/07/23 05:01:47;;;;;;;8.65;5.10;;;;;;;20.53;50.66;99577.38;6094430;23;20092;-82
2023/07/23 05:04:14;;;;;;;7.45;5.35;;;;;;;20.52;50.29;99586.50;6119179;23;20018;-82
2023/07/23 05:06:41;;;;;;;7.75;4.18;;;;;;;20.51;50.42;99594.81;6119697;23;20409;-82
2023/07/23 05:09:07;;;;;;;6.32;4.68;;;;;;;20.45;50.82;99584.81;6072223;23;20048;-83
2023/07/23 05:11:34;;;;;;;7.80;4.40;;;;;;;20.45;50.56;99574.84;6071101;23;20013;-83
2023/07/23 05:14:01;;;;;;;9.43;4.75;;;;;;;20.52;50.69;99580.28;6094212;23;20024;-82
2023/07/23 05:16:28;;;;;;;6.53;3.90;;;;;;;20.51;50.62;99584.84;6095480;23;20512;-82
2023/07/23 05:18:54;;;;;;;7.63;4.70;;;;;;;20.56;50.89;99578.88;6095172;23;20092;-82
2023/07/23 05:21:21;;;;;;;6.55;4.95;;;;;;;20.59;50.74;99583.84;6095746;23;20339;-84
2023/07/23 05:23:48;;;;;;;7.22;4.60;;;;;;;20.57;50.94;99584.03;6070656;23;20028;-82
2023/07/23 05:26:15;;;;;;;7.63;4.47;;;;;;;20.62;51.06;99577.19;6118136;23;20029;-82
2023/07/23 05:28:41;;;;;;;8.23;4.60;;;;;;;20.64;51.21;99583.22;6095794;23;20021;-82
2023/07/23 05:31:08;;;;;;;6.93;4.40;;;;;;;20.67;50.89;99582.81;6095998;23;20036;-83
2023/07/23 05:33:35;;;;;;;7.88;4.75;;;;;;;20.64;50.99;99584.03;6094685;23;20033;-83
2023/07/23 05:36:02;;;;;;;6.28;3.95;;;;;;;20.69;51.41;99588.81;6144987;23;20020;-82
2023/07/23 05:38:29;;;;;;;6.57;4.53;;;;;;;20.66;50.95;99584.69;6071391;23;20045;-82
2023/07/23 05:40:57;;;;;;;5.95;4.15;;;;;;;20.70;51.13;99587.78;6071375;23;20044;-83
2023/07/23 05:43:24;;;;;;;9.25;4.60;;;;;;;20.70;51.02;99591.28;6046576;23;20104;-83
2023/07/23 05:45:55;;;;;;;7.30;4.38;;;;;;;20.67;51.10;99586.31;6072786;23;20100;-82
2023/07/23 05:48:22;;;;;;;9.48;5.03;;;;;;;20.70;51.09;99590.47;6071258;23;20742;-83
2023/07/23 05:50:48;;;;;;;6.88;5.15;;;;;;;20.68;51.51;99581.75;6047647;23;20096;-83
2023/07/23 05:53:15;;;;;;;10.07;4.70;;;;;;;20.73;51.47;99577.38;6070223;23;20091;-82
2023/07/23 05:55:42;;;;;;;6.75;4.53;;;;;;;20.76;51.76;99577.00;6094536;23;20099;-82
2023/07/23 05:58:09;;;;;;;9.93;4.68;;;;;;;20.77;51.63;99567.03;6095490;23;20079;-83
2023/07/23 06:00:35;;;;;;;8.57;4.93;;;;;;;20.78;51.75;99568.66;6094993;23;20025;-82
2023/07/23 06:03:02;;;;;;;6.43;4.43;;;;;;;20.84;51.84;99577.78;6070033;23;20018;-82
2023/07/23 06:05:29;;;;;;;6.28;4.55;;;;;;;20.84;52.16;99575.94;6095791;23;20122;-83
2023/07/23 06:07:56;;;;;;;8.02;4.55;;;;;;;20.84;51.82;99575.94;6095739;23;20032;-82
2023/07/23 06:10:23;;;;;;;7.03;4.70;;;;;;;20.82;52.34;99578.03;6070605;23;20783;-82
2023/07/23 06:12:49;;;;;;;6.50;4.43;;;;;;;20.79;52.12;99573.88;6071110;23;20359;-82
2023/07/23 06:15:16;;;;;;;8.18;4.68;;;;;;;20.77;52.60;99572.41;6095426;23;20033;-82
2023/07/23 06:17:43;;;;;;;8.20;5.28;;;;;;;20.78;52.40;99568.66;6070136;23;20021;-82
2023/07/23 06:20:10;;;;;;;6.07;3.85;;;;;;;20.79;52.89;99573.03;6071192;23;20041;-82
2023/07/23 06:22:37;;;;;;;7.07;4.28;;;;;;;20.83;52.89;99578.84;6119188;23;20051;-82
2023/07/23 06:25:04;;;;;;;8.27;4.82;;;;;;;20.84;52.81;99565.16;6094082;23;20025;-83
2023/07/23 06:27:31;;;;;;;11.77;4.93;;;;;;;20.86;52.92;99570.31;6071695;23;20097;-82
2023/07/23 06:29:58;;;;;;;8.10;4.68;;;;;;;20.87;53.09;99567.44;6094190;23;20017;-82
2023/07/23 06:32:24;;;;;;;7.47;4.25;;;;;;;20.92;53.85;99570.31;6119078;23;20319;-84
2023/07/23 06:34:51;;;;;;;7.22;4.50;;;;;;;20.97;54.11;99565.13;6070970;23;20009;-82
2023/07/23 06:37:18;;;;;;;6.15;4.05;;;;;;;21.00;53.86;99564.69;6070262;23;20032;-82
2023/07/23 06:39:45;;;;;;;6.85;4.47;;;;;;;21.05;54.25;99563.25;6072240;23;20040;-82
2023/07/23 06:42:11;;;;;;;5.93;4.43;;;;;;;21.09;54.71;99576.13;6094258;23;20024;-83
2023/07/23 06:44:40;;;;;;;7.35;4.05;;;;;;;21.17;54.31;99561.56;6094265;23;20092;-83
2023/07/23 06:47:07;;;;;;;5.43;4.03;;;;;;;21.26;54.58;99560.28;6094449;23;21018;-82
2023/07/23 06:49:33;;;;;;;4.82;3.13;;;;;;;21.32;54.02;99556.75;6071317;23;20096;-81
2023/07/23 06:52:00;;;;;;;7.22;2.70;;;;;;;21.49;53.17;99554.41;6070477;23;20023;-84
2023/07/23 06:54:27;;;;;;;2.80;2.33;;;;;;;21.63;52.64;99563.31;6094217;23;20037;-83
2023/07/23 06:56:54;;;;;;;4.38;2.20;;;;;;;21.77;52.14;99564.91;6119018;23;20096;-82
2023/07/23 06:59:20;;;;;;;4.15;1.98;;;;;;;21.85;51.62;99572.78;6047211;23;20022;-82
2023/07/23 07:01:47;;;;;;;5.70;2.88;;;;;;;21.86;51.06;99563.63;6096117;23;20048;-83
2023/07/23 07:04:14;;;;;;;3.70;1.70;;;;;;;21.91;51.11;99567.56;6093693;23;20393;-83
2023/07/23 07:06:42;;;;;;;4.10;1.90;;;;;;;21.94;50.99;99561.72;6144773;23;20036;-84
2023/07/23 07:09:09;;;;;;;2.08;1.80;;;;;;;22.00;51.11;99560.84;6071685;23;20025;-84
2023/07/23 07:11:36;;;;;;;2.97;1.90;;;;;;;22.03;50.82;99563.09;6070756;23;20017;-83
2023/07/23 07:14:04;;;;;;;4.43;2.45;;;;;;;22.09;50.75;99551.44;6094167;23;20028;-83
2023/07/23 07:16:31;;;;;;;3.47;2.20;;;;;;;22.15;50.61;99555.13;6095861;23;20029;-83
2023/07/23 07:18:58;;;;;;;2.63;1.80;;;;;;;22.19;50.77;99543.69;6119621;23;20021;-83
2023/07/23 07:21:24;;;;;;;4.30;2.55;;;;;;;22.21;50.43;99555.13;6070566;23;20060;-83
2023/07/23 07:23:52;;;;;;;2.92;1.98;;;;;;;22.25;50.75;99553.63;6119394;23;20458;-82
2023/07/23 07:26:19;;;;;;;1.67;1.58;;;;;;;22.30;50.68;99550.28;6070939;23;20028;-83
2023/07/23 07:28:46;;;;;;;2.78;1.75;;;;;;;22.31;50.52;99543.81;6047413;23;20022;-84
2023/07/23 07:31:15;;;;;;;2.72;1.50;;;;;;;22.38;50.52;99551.88;6095347;23;20338;-83
2023/07/23 07:33:43;;;;;;;3.45;1.55;;;;;;;22.41;50.29;99537.91;6070995;23;20021;-83
2023/07/23 07:36:11;;;;;;;3.53;1.83;;;;;;;22.46;50.33;99541.59;6071933;23;20021;-83
2023/07/23 07:38:37;;;;;;;2.55;1.80;;;;;;;22.49;50.35;99535.78;6070806;23;20089;-84
2023/07/23 07:41:04;;;;;;;2.95;1.90;;;;;;;22.53;50.37;99539.69;6095227;23;20052;-82
2023/07/23 07:43:31;;;;;;;4.25;1.80;;;;;;;22.54;50.32;99537.78;6093605;23;20013;-83
2023/07/23 07:45:59;;;;;;;3.33;2.40;;;;;;;22.58;50.24;99541.72;6072622;23;22678;-83
2023/07/23 07:48:27;;;;;;;2.17;1.58;;;;;;;22.63;50.11;99550.00;6120481;23;20070;-83
2023/07/23 07:50:59;;;;;;;11.15;4.85;;;;;;;22.66;49.75;99537.91;6121524;23;20508;-82
2023/07/23 07:53:25;;;;;;;5.63;2.63;;;;;;;22.70;49.52;99544.56;6121068;23;20028;-83
2023/07/23 07:55:52;;;;;;;5.30;3.00;;;;;;;22.69;49.15;99540.16;6095430;23;20053;-82
2023/07/23 07:58:24;;;;;;;6.55;3.17;;;;;;;22.69;49.48;99549.09;6096990;23;20021;-83
2023/07/23 08:00:55;;;;;;;4.47;2.80;;;;;;;22.67;49.16;99535.00;6097274;23;20049;-85
2023/07/23 08:03:24;;;;;;;5.78;2.20;;;;;;;22.70;49.12;99541.84;6096168;23;20033;-83
2023/07/23 08:05:52;;;;;;;5.78;2.53;;;;;;;22.71;49.06;99540.78;6072490;23;20462;-85
2023/07/23 08:08:30;;;;;;;3.55;1.80;;;;;;;22.70;49.27;99547.25;6095838;23;20022;-82
2023/07/23 08:10:58;;;;;;;6.15;3.50;;;;;;;22.77;49.20;99542.63;6096182;23;20096;-82
2023/07/23 08:13:25;;;;;;;7.70;2.72;;;;;;;22.80;48.87;99544.06;6120286;23;20029;-82
2023/07/23 08:15:53;;;;;;;3.35;2.15;;;;;;;22.81;48.57;99542.97;6097137;23;20027;-83
2023/07/23 08:18:22;;;;;;;4.78;2.40;;;;;;;22.82;48.38;99550.03;6096077;23;20335;-83
2023/07/23 08:20:50;;;;;;;3.58;2.60;;;;;;;22.86;48.29;99551.25;6096432;23;20021;-83
2023/07/23 08:23:17;;;;;;;3.92;2.05;;;;;;;22.83;48.32;99557.94;6120285;23;20366;-83
2023/07/23 08:25:47;;;;;;;4.63;2.15;;;;;;;22.82;48.23;99542.78;6096038;23;20018;-82
2023/07/23 08:28:21;;;;;;;4.53;2.00;;;;;;;22.80;48.62;99547.56;6121129;23;20028;-82
2023/07/23 08:30:48;;;;;;;4.38;2.10;;;;;;;22.84;48.22;99547.94;6071781;23;20100;-84
2023/07/23 08:33:17;;;;;;;4.53;2.05;;;;;;;22.85;48.23;99539.63;6096605;23;20041;-83
2023/07/23 08:35:45;;;;;;;3.60;2.10;;;;;;;22.87;48.26;99547.50;6096450;23;20022;-83
2023/07/23 08:38:12;;;;;;;2.60;1.95;;;;;;;22.86;48.57;99552.09;6072264;23;20025;-83
2023/07/23 08:40:42;;;;;;;3.83;2.22;;;;;;;22.85;48.56;99547.75;6071158;23;20454;-86
2023/07/23 08:43:30;;;;;;;4.25;2.40;;;;;;;22.79;48.85;99548.59;6095817;23;20032;-85
2023/07/23 08:46:09;;;;;;;2.45;1.77;;;;;;;22.87;48.82;99548.34;6120555;23;20076;-82
2023/07/23 08:48:54;;;;;;;6.32;2.70;;;;;;;22.83;48.98;99554.44;6071661;23;20017;-82
2023/07/23 08:51:26;;;;;;;5.15;2.60;;;;;;;22.90;48.78;99552.50;6119416;23;20299;-83
2023/07/23 08:53:53;;;;;;;3.33;2.00;;;;;;;22.90;48.80;99555.19;6095566;23;20092;-82
2023/07/23 08:56:20;;;;;;;3.05;2.10;;;;;;;22.93;48.83;99550.16;6096947;23;20476;-83
2023/07/23 08:58:47;;;;;;;3.58;2.40;;;;;;;22.97;48.78;99547.84;6096392;23;20354;-82
2023/07/23 09:01:15;;;;;;;8.07;3.22;;;;;;;22.99;48.59;99553.88;6094127;23;20450;-82
2023/07/23 09:03:43;;;;;;;3.28;2.10;;;;;;;23.01;48.79;99551.78;6095400;23;20338;-84
2023/07/23 09:06:10;;;;;;;4.05;2.13;;;;;;;23.07;48.41;99540.03;6096796;23;20026;-83
2023/07/23 09:08:37;;;;;;;2.95;1.98;;;;;;;23.10;48.79;99553.16;6118814;23;20387;-83
2023/07/23 09:11:10;;;;;;;3.22;2.10;;;;;;;23.16;48.77;99551.41;6120487;23;20033;-84
2023/07/23 09:13:37;;;;;;;3.70;1.98;;;;;;;23.21;48.50;99540.72;6072734;23;20093;-84
2023/07/23 09:16:05;;;;;;;3.13;2.00;;;;;;;23.22;48.53;99544.25;6094830;23;20017;-84
2023/07/23 09:18:37;;;;;;;3.45;1.90;;;;;;;23.28;48.54;99538.78;6072460;23;20030;-86
2023/07/23 09:21:04;;;;;;;4.50;2.50;;;;;;;23.30;48.34;99546.66;6095697;23;20093;-85
2023/07/23 09:23:31;;;;;;;4.55;2.38;;;;;;;23.34;48.28;99537.03;6095924;23;20056;-85
2023/07/23 09:25:57;;;;;;;4.43;2.08;;;;;;;23.30;48.17;99550.19;6094887;23;20029;-83
2023/07/23 09:28:25;;;;;;;3.35;2.22;;;;;;;23.33;48.32;99544.34;6072126;23;20446;-84
2023/07/23 09:30:54;;;;;;;2.47;1.75;;;;;;;23.32;47.98;99542.69;6047704;23;20076;-85
2023/07/23 09:33:20;;;;;;;2.70;1.80;;;;;;;23.33;48.35;99527.25;6070747;23;20021;-84
2023/07/23 09:35:47;;;;;;;2.53;1.77;;;;;;;23.33;48.26;99528.09;6073531;23;20091;-86
2023/07/23 09:38:14;;;;;;;2.10;1.60;;;;;;;23.40;48.25;99528.00;6072108;23;20775;-84
2023/07/23 09:40:44;;;;;;;4.38;2.08;;;;;;;23.48;48.79;99524.97;6118874;23;20446;-84
2023/07/23 09:43:11;;;;;;;2.50;2.00;;;;;;;23.54;48.70;99510.53;6095282;23;20017;-84
2023/07/23 09:45:39;;;;;;;3.85;1.70;;;;;;;23.64;48.16;99509.16;6096129;23;20461;-84
2023/07/23 09:48:06;;;;;;;2.65;2.00;;;;;;;23.65;47.81;99508.91;6120750;23;20335;-84
2023/07/23 09:50:43;;;;;;;3.60;1.85;;;;;;;23.67;48.33;99517.66;6050436;23;20026;-85
2023/07/23 09:53:13;;;;;;;3.00;2.13;;;;;;;23.70;47.46;99511.75;6095854;23;20041;-85
2023/07/23 09:55:40;;;;;;;4.13;2.53;;;;;;;23.69;47.63;99507.41;6119902;23;20025;-85
2023/07/23 09:58:06;;;;;;;2.75;2.08;;;;;;;23.73;48.08;99516.75;6071420;23;20093;-84
2023/07/23 10:00:33;;;;;;;2.03;1.70;;;;;;;23.80;47.72;99501.22;6094529;23;20029;-84
2023/07/23 10:03:00;;;;;;;4.45;2.15;;;;;;;23.82;47.71;99503.72;6095178;23;20024;-83
2023/07/23 10:05:29;;;;;;;2.80;2.38;;;;;;;23.86;48.07;99495.94;6073004;23;20017;-84
2023/07/23 10:07:57;;;;;;;3.63;2.28;;;;;;;23.90;47.85;99510.69;6070650;23;20021;-85
2023/07/23 10:10:24;;;;;;;2.63;2.08;;;;;;;23.97;47.26;99497.88;6097304;23;20077;-85
2023/07/23 10:12:50;;;;;;;2.90;2.00;;;;;;;23.93;47.36;99504.81;6095328;23;20097;-84
2023/07/23 10:15:17;;;;;;;4.88;2.50;;;;;;;23.91;47.03;99510.47;6095521;23;20029;-85
2023/07/23 10:17:58;;;;;;;3.25;2.20;;;;;;;23.83;46.97;99508.91;6095864;23;20076;-85
2023/07/23 10:20:28;;;;;;;4.22;2.20;;;;;;;23.89;46.74;99506.31;6095126;23;20648;-84
2023/07/23 10:22:55;;;;;;;3.88;2.42;;;;;;;23.89;46.90;99499.03;6046930;23;20104;-84
2023/07/23 10:25:25;;;;;;;3.58;2.10;;;;;;;23.88;47.01;99496.53;6094066;23;20036;-86
2023/07/23 10:27:56;;;;;;;2.78;2.33;;;;;;;23.92;47.25;99492.31;6120110;23;20028;-83
2023/07/23 10:30:24;;;;;;;5.93;2.33;;;;;;;23.97;46.97;99489.75;6119604;23;20025;-85
2023/07/23 10:33:09;;;;;;;4.28;2.35;;;;;;;23.93;47.16;99485.84;6069317;23;20096;-84
2023/07/23 10:35:51;;;;;;;3.28;2.53;;;;;;;24.00;46.97;99492.00;6095448;23;20450;-84
2023/07/23 10:38:23;;;;;;;2.90;2.40;;;;;;;24.08;47.29;99475.38;6119757;23;20454;-86
2023/07/23 10:40:50;;;;;;;8.00;2.50;;;;;;;24.16;46.77;99468.78;6119083;23;20025;-86
2023/07/23 10:43:17;;;;;;;3.17;2.40;;;;;;;24.16;46.35;99466.88;6069586;23;20013;-83
2023/07/23 10:45:46;;;;;;;3.58;2.15;;;;;;;24.21;46.54;99463.47;6119333;23;20104;-85
2023/07/23 10:48:17;;;;;;;3.03;2.08;;;;;;;24.22;46.34;99459.69;6094419;23;20096;-85
2023/07/23 10:51:00;;;;;;;5.18;2.70;;;;;;;24.22;45.95;99438.84;6095541;23;20398;-85
2023/07/23 10:53:31;;;;;;;4.55;2.50;;;;;;;24.29;45.44;99451.44;6118030;23;20074;-85
2023/07/23 10:56:02;;;;;;;3.72;2.47;;;;;;;24.32;45.16;99456.41;6094457;23;20029;-85
2023/07/23 10:58:29;;;;;;;5.03;2.28;;;;;;;24.34;44.70;99448.84;6095077;23;20021;-85
2023/07/23 11:00:57;;;;;;;4.80;2.40;;;;;;;24.35;44.74;99445.06;6094772;23;20021;-84
2023/07/23 11:03:26;;;;;;;3.72;2.40;;;;;;;24.32;44.81;99451.78;6118763;23;20037;-84
2023/07/23 11:05:53;;;;;;;2.92;2.58;;;;;;;24.33;44.84;99456.19;6046231;23;20072;-85
2023/07/23 11:08:23;;;;;;;4.72;3.28;;;;;;;24.38;44.63;99460.91;6094516;23;20036;-84
2023/07/23 11:10:55;;;;;;;4.78;2.67;;;;;;;24.39;44.43;99446.25;6071091;23;20633;-85
2023/07/23 11:13:27;;;;;;;7.30;2.67;;;;;;;24.46;44.47;99449.72;6072023;23;20080;-87
2023/07/23 11:15:54;;;;;;;3.80;2.50;;;;;;;24.45;44.63;99438.06;6119380;23;20076;-86
2023/07/23 11:18:22;;;;;;;3.97;2.80;;;;;;;24.50;44.59;99445.50;6095224;23;20148;-86
2023/07/23 11:20:50;;;;;;;3.30;2.88;;;;;;;24.55;44.78;99442.91;6071070;23;20072;-86
2023/07/23 11:23:20;;;;;;;2.75;2.38;;;;;;;24.58;44.76;99449.72;6117789;23;20025;-85
2023/07/23 11:25:48;;;;;;;3.38;2.45;;;;;;;24.60;44.81;99447.59;6095023;23;20397;-85
2023/07/23 11:28:22;;;;;;;3.35;2.60;;;;;;;24.61;45.08;99432.97;6070814;23;20093;-85
2023/07/23 11:30:50;;;;;;;4.57;2.65;;;;;;;24.64;44.45;99432.50;6071415;23;20094;-84
2023/07/23 11:33:17;;;;;;;4.10;2.97;;;;;;;24.64;44.40;99429.78;6117675;23;20026;-86
2023/07/23 11:35:44;;;;;;;5.65;3.05;;;;;;;24.60;44.62;99439.44;6095728;23;20025;-85